Time;durP1;ratioP1;P1;durP2;ratioP2;P2;SDS_P1;SDS_P2;PMS_P1;PMS_P2;Temp;Humidity;BMP_temperature;BMP_pressure;BME280_temperature;BME280_humidity;BME280_pressure;Samples;Min_cycle;Max_cycle;Signal;HPM_P1;HPM_P2
2022/01/14 00:01:57;;;;;;;20.67;17.02;;;;;;;;;;5095539;28;20063;-87
2022/01/14 00:04:24;;;;;;;20.25;13.25;;;;;;;;;;5099596;28;20056;-89
2022/01/14 00:06:53;;;;;;;20.42;14.93;;;;;;;;;;5097162;28;20075;-90
2022/01/14 00:09:20;;;;;;;23.92;15.18;;;;;;;;;;5073712;28;20131;-88
2022/01/14 00:11:51;;;;;;;16.40;14.43;;;;;;;;;;5092384;28;20036;-91
2022/01/14 00:16:52;;;;;;;16.20;14.40;;;;;;;;;;5073526;28;20070;-85
2022/01/14 00:19:20;;;;;;;22.77;17.63;;;;;;;;;;5058269;28;20044;-87
2022/01/14 00:21:47;;;;;;;22.27;17.42;;;;;;;;;;5077149;28;20048;-86
2022/01/14 00:32:33;;;;;;;17.30;14.10;;;;;;;;;;5078995;28;20576;-86
2022/01/14 00:35:00;;;;;;;16.10;13.00;;;;;;;;;;5092296;28;20052;-88
2022/01/14 00:37:27;;;;;;;17.10;11.77;;;;;;;;;;5091366;28;20067;-87
2022/01/14 00:39:54;;;;;;;17.08;13.88;;;;;;;;;;5101237;28;20068;-87
2022/01/14 00:42:21;;;;;;;18.58;13.07;;;;;;;;;;5076956;28;20103;-88
2022/01/14 00:44:48;;;;;;;15.65;11.98;;;;;;;;;;5073283;28;20048;-87
2022/01/14 00:47:15;;;;;;;17.63;13.05;;;;;;;;;;5086458;28;20051;-86
2022/01/14 00:49:44;;;;;;;15.55;12.70;;;;;;;;;;5072004;28;20664;-86
2022/01/14 00:52:11;;;;;;;17.40;13.38;;;;;;;;;;5055950;28;20048;-88
2022/01/14 00:54:38;;;;;;;13.05;10.98;;;;;;;;;;5051779;28;20105;-87
2022/01/14 00:59:35;;;;;;;12.38;10.25;;;;;;;;;;5066120;28;20497;-85
2022/01/14 01:02:03;;;;;;;13.85;10.15;;;;;;;;;;5056425;28;20052;-88
2022/01/14 01:04:37;;;;;;;12.02;9.35;;;;;;;;;;5070851;28;20044;-87
2022/01/14 01:07:07;;;;;;;13.40;9.32;;;;;;;;;;5056506;28;20044;-89
2022/01/14 01:09:36;;;;;;;9.73;7.78;;;;;;;;;;5047556;28;20044;-88
2022/01/14 01:14:46;;;;;;;10.10;8.55;;;;;;;;;;5055444;28;20051;-88
2022/01/14 01:17:14;;;;;;;11.75;9.80;;;;;;;;;;5045743;28;20095;-88
2022/01/14 01:19:41;;;;;;;11.35;9.77;;;;;;;;;;5021960;28;20512;-87
2022/01/14 01:22:08;;;;;;;12.63;9.20;;;;;;;;;;5055318;28;20049;-89
2022/01/14 01:24:47;;;;;;;10.48;9.38;;;;;;;;;;5043144;28;20053;-90
2022/01/14 01:27:16;;;;;;;12.25;9.43;;;;;;;;;;5056006;28;20135;-89
2022/01/14 01:29:50;;;;;;;15.23;10.25;;;;;;;;;;5056736;28;20044;-90
2022/01/14 01:32:17;;;;;;;11.82;9.18;;;;;;;;;;5049957;28;20059;-90
2022/01/14 01:34:44;;;;;;;8.63;7.57;;;;;;;;;;5016759;28;20132;-89
2022/01/14 01:37:11;;;;;;;9.45;8.43;;;;;;;;;;5017643;28;20057;-88
2022/01/14 01:39:38;;;;;;;10.27;8.13;;;;;;;;;;5035241;28;20052;-89
2022/01/14 01:42:08;;;;;;;8.80;7.38;;;;;;;;;;5041847;28;20453;-87
2022/01/14 01:44:38;;;;;;;9.18;6.80;;;;;;;;;;5035007;28;20049;-88
2022/01/14 01:47:05;;;;;;;9.60;8.25;;;;;;;;;;5036069;28;20040;-86
2022/01/14 01:49:35;;;;;;;11.60;8.68;;;;;;;;;;5035950;28;20052;-86
2022/01/14 01:52:03;;;;;;;14.10;8.35;;;;;;;;;;5035956;28;20049;-88
2022/01/14 01:54:30;;;;;;;11.25;8.13;;;;;;;;;;5036690;28;20067;-88
2022/01/14 01:56:58;;;;;;;13.35;9.00;;;;;;;;;;5046543;28;20067;-86
2022/01/14 01:59:26;;;;;;;12.68;9.05;;;;;;;;;;5019413;28;20132;-83
2022/01/14 02:01:56;;;;;;;13.50;8.07;;;;;;;;;;5031857;28;20056;-87
2022/01/14 02:04:23;;;;;;;9.85;7.85;;;;;;;;;;5038320;28;20052;-87
2022/01/14 02:06:52;;;;;;;11.65;8.30;;;;;;;;;;5037955;28;20130;-89
2022/01/14 02:09:19;;;;;;;10.15;8.27;;;;;;;;;;5018923;28;20114;-89
2022/01/14 02:11:46;;;;;;;9.48;8.32;;;;;;;;;;5034369;28;20055;-86
2022/01/14 02:14:40;;;;;;;15.85;8.75;;;;;;;;;;5033860;28;20594;-86
2022/01/14 02:22:53;;;;;;;12.93;9.23;;;;;;;;;;5037412;28;20045;-82
2022/01/14 02:25:28;;;;;;;10.60;7.90;;;;;;;;;;5034509;28;20051;-81
2022/01/14 02:28:07;;;;;;;12.32;7.85;;;;;;;;;;5052433;28;20049;-83
2022/01/14 02:30:39;;;;;;;10.77;8.63;;;;;;;;;;5051852;28;20068;-82
2022/01/14 02:33:06;;;;;;;10.57;8.52;;;;;;;;;;5048583;28;20083;-83
2022/01/14 02:35:34;;;;;;;11.02;8.75;;;;;;;;;;5054374;28;20056;-83
2022/01/14 02:38:01;;;;;;;9.15;7.70;;;;;;;;;;5071569;28;20058;-83
2022/01/14 02:40:28;;;;;;;9.15;8.30;;;;;;;;;;5037945;28;20044;-83
2022/01/14 02:42:59;;;;;;;13.98;9.18;;;;;;;;;;5054867;28;20040;-84
2022/01/14 02:45:32;;;;;;;9.82;7.82;;;;;;;;;;5072384;28;20045;-86
2022/01/14 02:48:01;;;;;;;11.15;7.57;;;;;;;;;;5072007;28;20064;-81
2022/01/14 02:50:36;;;;;;;9.45;8.32;;;;;;;;;;5088082;28;20453;-86
2022/01/14 02:53:13;;;;;;;9.90;8.70;;;;;;;;;;5086739;28;20057;-89
2022/01/14 02:55:43;;;;;;;9.20;7.35;;;;;;;;;;5071971;28;20049;-90
2022/01/14 02:58:10;;;;;;;9.75;7.80;;;;;;;;;;5054800;28;20655;-88
2022/01/14 03:00:37;;;;;;;10.63;9.10;;;;;;;;;;5087536;28;20139;-85
2022/01/14 03:03:05;;;;;;;9.95;8.30;;;;;;;;;;5072300;28;20072;-89
2022/01/14 03:05:32;;;;;;;9.00;7.65;;;;;;;;;;5071694;28;20084;-86
2022/01/14 03:07:59;;;;;;;9.73;8.00;;;;;;;;;;5072495;28;20048;-92
2022/01/14 03:10:26;;;;;;;12.23;7.97;;;;;;;;;;5072174;28;20102;-91
2022/01/14 03:12:52;;;;;;;10.40;7.03;;;;;;;;;;5072782;28;20040;-92
2022/01/14 03:15:20;;;;;;;11.35;9.30;;;;;;;;;;5054572;28;20127;-84
2022/01/14 03:17:46;;;;;;;9.40;7.93;;;;;;;;;;5054093;28;20048;-84
2022/01/14 03:20:41;;;;;;;10.88;9.23;;;;;;;;;;5054577;28;20044;-83
2022/01/14 03:23:06;;;;;;;12.32;8.48;;;;;;;;;;5071569;28;20083;-84
2022/01/14 03:25:51;;;;;;;9.30;8.30;;;;;;;;;;5057953;28;20040;-84
2022/01/14 03:28:22;;;;;;;11.68;8.45;;;;;;;;;;5088339;28;20071;-83
2022/01/14 03:30:51;;;;;;;9.55;8.25;;;;;;;;;;5091113;28;20048;-83
2022/01/14 03:33:21;;;;;;;15.20;8.20;;;;;;;;;;5056915;28;20059;-83
2022/01/14 03:35:49;;;;;;;10.60;7.70;;;;;;;;;;5058413;28;20048;-82
2022/01/14 03:38:17;;;;;;;10.77;8.60;;;;;;;;;;5090848;28;20055;-84
2022/01/14 03:40:44;;;;;;;12.65;7.65;;;;;;;;;;5090717;28;20520;-83
2022/01/14 03:43:11;;;;;;;8.90;7.45;;;;;;;;;;5075131;28;20071;-80
2022/01/14 03:45:39;;;;;;;8.60;7.70;;;;;;;;;;5074848;28;20072;-86
2022/01/14 03:48:07;;;;;;;7.47;6.78;;;;;;;;;;5090813;28;20135;-79
2022/01/14 03:50:34;;;;;;;9.43;7.03;;;;;;;;;;5073836;28;20048;-86
2022/01/14 03:53:02;;;;;;;7.30;6.10;;;;;;;;;;5057481;28;20059;-89
2022/01/14 03:55:35;;;;;;;9.48;6.72;;;;;;;;;;5058771;28;20044;-86
2022/01/14 03:58:02;;;;;;;6.95;6.25;;;;;;;;;;5057685;28;20053;-89
2022/01/14 04:00:30;;;;;;;10.75;7.93;;;;;;;;;;5074849;28;20045;-86
2022/01/14 04:02:57;;;;;;;7.28;6.55;;;;;;;;;;5056536;28;20067;-87
2022/01/14 04:05:24;;;;;;;10.38;7.07;;;;;;;;;;5057365;28;20049;-88
2022/01/14 04:07:52;;;;;;;9.30;8.50;;;;;;;;;;5074339;28;20052;-87
2022/01/14 04:10:20;;;;;;;9.30;7.28;;;;;;;;;;5074467;28;20048;-87
2022/01/14 04:12:57;;;;;;;6.95;6.25;;;;;;;;;;5057010;28;20041;-88
2022/01/14 04:15:44;;;;;;;6.97;6.22;;;;;;;;;;5074697;28;20059;-88
2022/01/14 04:18:17;;;;;;;6.28;5.65;;;;;;;;;;5049707;28;20048;-88
2022/01/14 04:20:47;;;;;;;5.97;5.25;;;;;;;;;;5054964;28;20049;-85
2022/01/14 04:23:18;;;;;;;11.13;6.22;;;;;;;;;;5055302;28;20044;-88
2022/01/14 04:25:47;;;;;;;6.88;5.30;;;;;;;;;;5021322;28;20079;-89
2022/01/14 04:28:14;;;;;;;8.10;5.95;;;;;;;;;;5021870;28;20049;-89
2022/01/14 04:30:41;;;;;;;6.40;5.80;;;;;;;;;;5054168;28;20139;-84
2022/01/14 04:33:08;;;;;;;7.88;5.85;;;;;;;;;;5046190;28;20065;-87
2022/01/14 04:35:35;;;;;;;6.05;5.50;;;;;;;;;;5054510;28;20049;-88
2022/01/14 04:38:03;;;;;;;11.88;5.35;;;;;;;;;;5036737;28;20071;-89
2022/01/14 04:40:31;;;;;;;6.00;4.95;;;;;;;;;;5038027;28;20449;-88
2022/01/14 04:42:59;;;;;;;5.97;5.40;;;;;;;;;;5004056;28;20136;-87
2022/01/14 04:45:40;;;;;;;7.35;6.03;;;;;;;;;;5036714;28;20493;-86
2022/01/14 04:48:10;;;;;;;6.22;5.60;;;;;;;;;;5038741;28;20132;-84
2022/01/14 04:50:37;;;;;;;7.78;5.53;;;;;;;;;;5036463;28;20048;-84
2022/01/14 04:53:04;;;;;;;8.57;6.10;;;;;;;;;;5053976;28;20409;-80
2022/01/14 04:55:31;;;;;;;8.48;6.82;;;;;;;;;;5020481;28;20122;-82
2022/01/14 04:57:58;;;;;;;5.75;5.05;;;;;;;;;;5036575;28;20107;-82
2022/01/14 05:00:26;;;;;;;5.82;5.18;;;;;;;;;;5036708;28;20053;-84
2022/01/14 05:02:55;;;;;;;5.50;4.88;;;;;;;;;;5035918;28;20091;-82
2022/01/14 05:05:25;;;;;;;6.20;4.50;;;;;;;;;;5053972;28;20040;-83
2022/01/14 05:07:52;;;;;;;6.18;5.57;;;;;;;;;;5020575;28;20061;-84
2022/01/14 05:12:56;;;;;;;9.98;5.28;;;;;;;;;;5040593;28;20070;-83
2022/01/14 05:15:23;;;;;;;7.25;5.60;;;;;;;;;;5073008;28;20052;-82
2022/01/14 05:17:51;;;;;;;5.20;4.70;;;;;;;;;;5074521;28;20083;-88
2022/01/14 05:20:18;;;;;;;7.57;5.88;;;;;;;;;;5035996;28;20053;-84
2022/01/14 05:22:46;;;;;;;6.15;5.55;;;;;;;;;;5035901;28;20063;-82
2022/01/14 05:25:14;;;;;;;7.43;4.65;;;;;;;;;;5055648;28;20131;-85
2022/01/14 05:27:42;;;;;;;6.68;5.05;;;;;;;;;;5047873;28;20053;-86
2022/01/14 05:30:12;;;;;;;7.57;5.90;;;;;;;;;;5036013;28;20136;-86
2022/01/14 05:32:47;;;;;;;6.10;5.50;;;;;;;;;;5088052;28;20509;-87
2022/01/14 05:35:16;;;;;;;6.90;4.78;;;;;;;;;;5072752;28;20048;-87
2022/01/14 05:37:44;;;;;;;6.95;5.75;;;;;;;;;;5088310;28;20094;-89
2022/01/14 05:40:11;;;;;;;6.13;5.10;;;;;;;;;;5055217;28;20044;-87
2022/01/14 05:42:38;;;;;;;6.07;5.50;;;;;;;;;;5038869;28;20067;-87
2022/01/14 05:45:11;;;;;;;9.00;4.50;;;;;;;;;;5055306;28;20033;-87
2022/01/14 05:47:39;;;;;;;4.70;4.15;;;;;;;;;;5038849;28;20049;-86
2022/01/14 05:50:15;;;;;;;4.65;4.25;;;;;;;;;;5088336;28;20048;-86
2022/01/14 05:52:43;;;;;;;7.22;5.30;;;;;;;;;;5088363;28;20053;-86
2022/01/14 05:55:12;;;;;;;8.00;4.88;;;;;;;;;;5054963;28;20071;-75
2022/01/14 05:57:39;;;;;;;6.28;5.10;;;;;;;;;;5071340;28;20083;-85
2022/01/14 06:00:11;;;;;;;6.15;4.85;;;;;;;;;;5054440;28;20061;-86
2022/01/14 06:02:47;;;;;;;8.65;5.20;;;;;;;;;;5073822;28;20405;-86
2022/01/14 06:05:14;;;;;;;6.47;5.45;;;;;;;;;;5072610;28;20094;-88
2022/01/14 06:07:41;;;;;;;8.57;4.85;;;;;;;;;;5072692;28;20044;-86
2022/01/14 06:10:10;;;;;;;8.30;5.05;;;;;;;;;;5054579;28;20048;-86
2022/01/14 06:12:38;;;;;;;8.32;5.90;;;;;;;;;;5019042;28;20080;-87
2022/01/14 06:15:05;;;;;;;6.50;4.65;;;;;;;;;;5035130;28;20051;-86
2022/01/14 06:17:32;;;;;;;6.53;4.95;;;;;;;;;;5055302;28;20052;-85
2022/01/14 06:19:59;;;;;;;8.95;5.30;;;;;;;;;;5053034;28;20103;-85
2022/01/14 06:22:26;;;;;;;8.85;4.82;;;;;;;;;;5018429;28;20049;-84
2022/01/14 06:24:54;;;;;;;7.85;5.43;;;;;;;;;;5018943;28;20612;-89
2022/01/14 06:27:21;;;;;;;6.00;4.93;;;;;;;;;;5052511;28;20053;-85
2022/01/14 06:29:48;;;;;;;10.48;5.88;;;;;;;;;;5052184;28;20494;-83
2022/01/14 06:32:15;;;;;;;7.15;6.13;;;;;;;;;;5034339;28;20045;-85
2022/01/14 06:34:42;;;;;;;8.23;5.45;;;;;;;;;;5034385;28;20127;-86
2022/01/14 06:37:15;;;;;;;6.15;5.20;;;;;;;;;;5019010;28;20072;-84
2022/01/14 06:39:42;;;;;;;11.07;5.80;;;;;;;;;;5053984;28;20501;-81
2022/01/14 06:42:09;;;;;;;6.80;5.70;;;;;;;;;;5064174;28;20053;-82
2022/01/14 06:44:36;;;;;;;7.03;6.32;;;;;;;;;;5053849;28;20087;-73
2022/01/14 06:47:03;;;;;;;13.32;6.40;;;;;;;;;;5042610;28;20115;-82
2022/01/14 06:49:30;;;;;;;7.00;6.30;;;;;;;;;;5022359;28;20079;-83
2022/01/14 06:51:57;;;;;;;11.95;7.93;;;;;;;;;;5053318;28;20123;-87
2022/01/14 06:54:24;;;;;;;8.20;6.40;;;;;;;;;;5069383;28;20052;-84
2022/01/14 06:56:51;;;;;;;14.82;6.70;;;;;;;;;;5034665;28;20231;-90
2022/01/14 06:59:18;;;;;;;12.40;7.80;;;;;;;;;;5019494;28;20045;-86
2022/01/14 07:01:45;;;;;;;14.95;8.43;;;;;;;;;;5037012;28;20471;-83
2022/01/14 07:04:12;;;;;;;15.00;7.82;;;;;;;;;;5055977;28;20523;-80
2022/01/14 07:06:40;;;;;;;13.88;8.73;;;;;;;;;;5065326;28;20044;-80
2022/01/14 07:09:07;;;;;;;12.38;7.85;;;;;;;;;;5032022;28;20131;-80
2022/01/14 07:11:36;;;;;;;13.82;9.18;;;;;;;;;;5048394;28;20418;-83
2022/01/14 07:14:04;;;;;;;16.17;9.20;;;;;;;;;;5039542;28;20058;-81
2022/01/14 07:16:33;;;;;;;27.58;14.90;;;;;;;;;;5052616;28;20055;-81
2022/01/14 07:19:02;;;;;;;34.88;18.75;;;;;;;;;;5064212;28;20045;-82
2022/01/14 07:21:33;;;;;;;48.40;26.52;;;;;;;;;;5054637;28;20072;-84
2022/01/14 07:24:03;;;;;;;82.13;38.10;;;;;;;;;;5050845;28;20104;-77
2022/01/14 07:26:31;;;;;;;54.05;28.27;;;;;;;;;;5066587;28;20071;-79
2022/01/14 07:28:59;;;;;;;73.07;35.00;;;;;;;;;;5066731;28;20135;-80
2022/01/14 07:31:26;;;;;;;74.63;35.83;;;;;;;;;;5062472;28;20492;-84
2022/01/14 07:33:53;;;;;;;62.10;30.73;;;;;;;;;;5052902;28;20067;-86
2022/01/14 07:36:20;;;;;;;62.05;28.88;;;;;;;;;;5047167;28;20052;-78
2022/01/14 07:38:47;;;;;;;64.05;28.48;;;;;;;;;;5061537;28;20052;-79
2022/01/14 07:41:14;;;;;;;85.20;43.50;;;;;;;;;;5057187;28;20583;-78
2022/01/14 07:43:46;;;;;;;74.30;33.83;;;;;;;;;;5057273;28;20389;-80
2022/01/14 07:46:14;;;;;;;61.42;25.67;;;;;;;;;;5051899;28;20816;-80
2022/01/14 07:48:41;;;;;;;40.78;19.77;;;;;;;;;;5072564;28;20519;-79
2022/01/14 07:51:09;;;;;;;59.30;31.27;;;;;;;;;;5050364;28;20048;-80
2022/01/14 07:53:37;;;;;;;50.70;27.35;;;;;;;;;;5055671;28;20140;-80
2022/01/14 07:56:06;;;;;;;49.95;24.50;;;;;;;;;;5038494;28;20052;-80
2022/01/14 07:58:34;;;;;;;49.08;26.33;;;;;;;;;;5045402;28;20150;-79
2022/01/14 08:01:02;;;;;;;50.45;28.10;;;;;;;;;;5065040;28;20502;-79
2022/01/14 08:03:30;;;;;;;27.30;15.30;;;;;;;;;;5046475;28;20484;-80
2022/01/14 08:05:58;;;;;;;29.23;16.17;;;;;;;;;;5046584;28;20502;-80
2022/01/14 08:08:28;;;;;;;98.57;41.17;;;;;;;;;;5040956;28;20044;-80
2022/01/14 08:10:58;;;;;;;146.02;49.10;;;;;;;;;;5035937;28;20049;-82
2022/01/14 08:13:25;;;;;;;92.05;31.45;;;;;;;;;;5037851;28;20505;-81
2022/01/14 08:15:52;;;;;;;22.40;11.85;;;;;;;;;;5063449;28;20135;-79
2022/01/14 08:18:20;;;;;;;12.32;8.23;;;;;;;;;;5099547;28;20057;-80
2022/01/14 08:20:48;;;;;;;12.75;8.93;;;;;;;;;;5092108;28;20500;-86
2022/01/14 08:23:15;;;;;;;12.25;9.55;;;;;;;;;;5083299;28;20044;-76
2022/01/14 08:25:43;;;;;;;12.23;8.50;;;;;;;;;;5065190;28;20500;-87
2022/01/14 08:28:11;;;;;;;9.20;8.02;;;;;;;;;;5020861;28;20068;-90
2022/01/14 08:30:38;;;;;;;10.70;7.25;;;;;;;;;;5056857;28;20073;-88
2022/01/14 08:33:06;;;;;;;10.18;7.90;;;;;;;;;;5052831;28;20053;-87
2022/01/14 08:35:33;;;;;;;17.30;8.82;;;;;;;;;;5051645;28;20052;-78
2022/01/14 08:38:00;;;;;;;15.93;8.82;;;;;;;;;;5050764;28;20075;-85
2022/01/14 08:40:27;;;;;;;17.88;13.65;;;;;;;;;;5021795;28;20122;-76
2022/01/14 08:42:55;;;;;;;14.30;10.35;;;;;;;;;;5038757;28;20037;-83
2022/01/14 08:45:23;;;;;;;18.25;10.63;;;;;;;;;;5048609;28;20040;-82
2022/01/14 08:47:53;;;;;;;23.25;11.25;;;;;;;;;;5051744;28;20727;-79
2022/01/14 08:50:25;;;;;;;20.80;10.10;;;;;;;;;;5051037;28;20047;-81
2022/01/14 08:52:53;;;;;;;16.42;9.63;;;;;;;;;;5049915;28;20044;-80
2022/01/14 08:55:22;;;;;;;18.95;10.77;;;;;;;;;;5052028;28;20049;-85
2022/01/14 08:57:49;;;;;;;18.02;10.57;;;;;;;;;;5066527;28;20096;-81
2022/01/14 09:00:18;;;;;;;16.85;11.18;;;;;;;;;;5051923;28;20107;-85
2022/01/14 09:02:50;;;;;;;17.38;10.00;;;;;;;;;;5052735;28;20079;-79
2022/01/14 09:05:18;;;;;;;18.45;9.93;;;;;;;;;;5052934;28;20693;-83
2022/01/14 09:07:45;;;;;;;15.48;9.13;;;;;;;;;;5049232;28;20413;-76
2022/01/14 09:10:12;;;;;;;13.98;9.77;;;;;;;;;;5052008;28;20059;-84
2022/01/14 09:12:40;;;;;;;13.20;8.93;;;;;;;;;;5050585;28;20036;-80
2022/01/14 09:15:09;;;;;;;13.73;9.07;;;;;;;;;;5065508;28;20544;-85
2022/01/14 09:17:38;;;;;;;11.75;9.40;;;;;;;;;;5049791;28;20045;-87
2022/01/14 09:20:06;;;;;;;10.48;8.48;;;;;;;;;;5052088;28;20048;-80
2022/01/14 09:22:35;;;;;;;11.90;8.75;;;;;;;;;;5051266;28;20051;-76
2022/01/14 09:25:05;;;;;;;17.02;8.60;;;;;;;;;;5032417;28;20048;-77
2022/01/14 09:27:34;;;;;;;15.55;8.18;;;;;;;;;;5059481;28;20074;-76
2022/01/14 09:30:06;;;;;;;13.32;9.75;;;;;;;;;;5049858;28;20084;-73
2022/01/14 09:32:33;;;;;;;9.52;7.55;;;;;;;;;;5037566;28;20057;-76
2022/01/14 09:35:06;;;;;;;10.13;8.70;;;;;;;;;;5046012;28;20501;-77
2022/01/14 09:37:33;;;;;;;14.20;8.38;;;;;;;;;;5041024;28;20041;-78
2022/01/14 09:40:00;;;;;;;15.15;7.28;;;;;;;;;;5055501;28;20041;-71
2022/01/14 09:42:30;;;;;;;10.73;7.22;;;;;;;;;;5031937;28;20461;-78
2022/01/14 09:45:05;;;;;;;12.82;7.80;;;;;;;;;;5027017;28;20505;-74
2022/01/14 09:47:53;;;;;;;8.35;6.55;;;;;;;;;;5033541;28;20409;-74
2022/01/14 09:50:34;;;;;;;12.80;9.00;;;;;;;;;;5032267;28;20053;-75
2022/01/14 09:53:05;;;;;;;12.65;8.40;;;;;;;;;;5031014;28;20141;-75
2022/01/14 09:55:32;;;;;;;12.48;7.85;;;;;;;;;;5036494;28;20045;-77
2022/01/14 09:58:01;;;;;;;15.38;8.95;;;;;;;;;;5054257;28;20055;-82
2022/01/14 10:00:28;;;;;;;20.90;10.95;;;;;;;;;;5049683;28;20048;-80
2022/01/14 10:02:55;;;;;;;17.80;11.15;;;;;;;;;;5066866;28;20040;-76
2022/01/14 10:05:37;;;;;;;15.43;10.68;;;;;;;;;;5037083;28;20057;-75
2022/01/14 10:08:21;;;;;;;18.27;9.40;;;;;;;;;;5022658;28;20124;-76
2022/01/14 10:10:59;;;;;;;13.15;9.00;;;;;;;;;;5041254;28;20051;-76
2022/01/14 10:13:28;;;;;;;10.27;8.13;;;;;;;;;;5034988;28;20053;-76
2022/01/14 10:16:04;;;;;;;14.52;7.70;;;;;;;;;;5045993;28;20072;-79
2022/01/14 10:18:33;;;;;;;13.35;7.00;;;;;;;;;;5060924;28;20048;-76
2022/01/14 10:21:02;;;;;;;9.43;6.45;;;;;;;;;;5062065;28;20869;-78
2022/01/14 10:23:44;;;;;;;11.07;7.70;;;;;;;;;;5050722;28;20045;-78
2022/01/14 10:26:16;;;;;;;8.35;6.65;;;;;;;;;;5042670;28;20058;-78
2022/01/14 10:28:46;;;;;;;12.05;7.50;;;;;;;;;;5063148;28;20057;-78
2022/01/14 10:31:13;;;;;;;10.25;6.53;;;;;;;;;;5045724;28;20408;-77
2022/01/14 10:33:40;;;;;;;9.52;5.43;;;;;;;;;;5049533;28;20064;-79
2022/01/14 10:36:08;;;;;;;7.60;5.28;;;;;;;;;;5046449;28;20515;-78
2022/01/14 10:38:46;;;;;;;6.82;5.35;;;;;;;;;;5020187;28;20129;-76
2022/01/14 10:41:13;;;;;;;7.13;5.10;;;;;;;;;;5015289;28;20080;-74
2022/01/14 10:43:43;;;;;;;8.45;5.07;;;;;;;;;;5031035;28;20049;-75
2022/01/14 10:46:11;;;;;;;11.52;6.53;;;;;;;;;;5013447;28;20494;-76
2022/01/14 10:48:43;;;;;;;10.20;5.03;;;;;;;;;;5031369;28;20137;-78
2022/01/14 10:51:12;;;;;;;7.20;5.38;;;;;;;;;;5031374;28;20049;-75
2022/01/14 10:53:53;;;;;;;7.68;4.75;;;;;;;;;;5050844;28;20045;-76
2022/01/14 10:56:23;;;;;;;6.28;4.63;;;;;;;;;;5050552;28;20083;-75
2022/01/14 10:58:55;;;;;;;6.90;5.05;;;;;;;;;;5028419;28;20473;-76
2022/01/14 11:01:23;;;;;;;6.63;4.97;;;;;;;;;;5046753;28;20144;-76
2022/01/14 11:03:57;;;;;;;6.47;4.85;;;;;;;;;;5033268;28;20049;-76
2022/01/14 11:06:39;;;;;;;6.47;4.85;;;;;;;;;;5033628;28;20080;-76
2022/01/14 11:09:08;;;;;;;7.80;4.45;;;;;;;;;;5038621;28;20136;-76
2022/01/14 11:11:43;;;;;;;11.60;5.00;;;;;;;;;;5030105;28;20077;-79
2022/01/14 11:14:11;;;;;;;11.32;5.75;;;;;;;;;;5053135;28;20053;-80
2022/01/14 11:16:38;;;;;;;6.13;4.88;;;;;;;;;;5070979;28;20041;-77
2022/01/14 11:19:08;;;;;;;11.77;5.55;;;;;;;;;;5067956;28;20041;-81
2022/01/14 11:24:28;;;;;;;10.73;5.35;;;;;;;;;;5030718;28;20501;-78
2022/01/14 11:27:04;;;;;;;11.40;5.85;;;;;;;;;;5045650;28;20041;-78
2022/01/14 11:29:35;;;;;;;6.88;4.90;;;;;;;;;;5041335;28;20055;-81
2022/01/14 11:32:03;;;;;;;10.40;6.10;;;;;;;;;;5030890;28;20145;-80
2022/01/14 11:34:32;;;;;;;6.72;5.88;;;;;;;;;;5057095;28;20040;-85
2022/01/14 11:37:26;;;;;;;7.88;5.35;;;;;;;;;;5054026;28;20070;-83
2022/01/14 11:39:58;;;;;;;9.70;6.15;;;;;;;;;;5063721;28;20117;-82
2022/01/14 11:42:44;;;;;;;10.50;5.97;;;;;;;;;;5058498;28;20526;-82
2022/01/14 11:45:13;;;;;;;7.47;5.47;;;;;;;;;;5061755;28;20052;-82
2022/01/14 11:47:43;;;;;;;8.93;5.07;;;;;;;;;;5054453;28;20107;-74
2022/01/14 11:50:19;;;;;;;8.38;5.38;;;;;;;;;;5081780;28;20064;-80
2022/01/14 11:52:47;;;;;;;6.43;5.25;;;;;;;;;;5073416;28;20049;-80
2022/01/14 11:55:38;;;;;;;8.98;6.90;;;;;;;;;;5065429;28;20048;-81
2022/01/14 11:58:12;;;;;;;7.03;5.32;;;;;;;;;;5063836;28;20080;-80
2022/01/14 12:00:43;;;;;;;14.30;4.40;;;;;;;;;;5076174;28;20051;-79
2022/01/14 12:03:10;;;;;;;7.30;5.32;;;;;;;;;;5061538;28;20044;-75
2022/01/14 12:05:38;;;;;;;6.63;5.85;;;;;;;;;;5069671;28;20427;-79
2022/01/14 12:08:12;;;;;;;13.25;5.82;;;;;;;;;;5032429;28;20037;-79
2022/01/14 12:10:47;;;;;;;7.45;5.50;;;;;;;;;;5061515;28;20045;-77
2022/01/14 12:13:36;;;;;;;5.25;4.72;;;;;;;;;;5042409;28;20140;-77
2022/01/14 12:18:58;;;;;;;5.78;4.72;;;;;;;;;;5051336;28;20049;-79
2022/01/14 12:21:37;;;;;;;6.90;4.68;;;;;;;;;;5054488;28;20045;-80
2022/01/14 12:24:19;;;;;;;7.72;4.70;;;;;;;;;;5053286;28;20071;-80
2022/01/14 12:26:52;;;;;;;12.02;4.75;;;;;;;;;;5066807;28;20051;-73
2022/01/14 12:29:51;;;;;;;6.82;4.40;;;;;;;;;;5063154;28;20052;-73
2022/01/14 12:32:28;;;;;;;10.10;5.40;;;;;;;;;;5063033;28;20514;-73
2022/01/14 12:34:55;;;;;;;5.93;4.35;;;;;;;;;;5054901;28;20056;-73
2022/01/14 12:37:27;;;;;;;5.93;4.75;;;;;;;;;;5067177;28;20147;-74
2022/01/14 12:39:55;;;;;;;4.65;3.80;;;;;;;;;;5054558;28;20449;-72
2022/01/14 12:42:23;;;;;;;5.80;4.63;;;;;;;;;;5043582;28;20098;-73
2022/01/14 12:44:52;;;;;;;5.95;4.78;;;;;;;;;;5048884;28;20080;-73
2022/01/14 12:47:24;;;;;;;6.70;4.93;;;;;;;;;;5052124;28;20567;-76
2022/01/14 12:49:52;;;;;;;4.78;3.88;;;;;;;;;;5053457;28;20412;-72
2022/01/14 12:52:30;;;;;;;11.00;5.75;;;;;;;;;;5052913;28;20048;-76
2022/01/14 12:55:04;;;;;;;7.35;4.80;;;;;;;;;;5052793;28;20071;-75
2022/01/14 12:57:31;;;;;;;7.22;5.10;;;;;;;;;;5037340;28;20048;-76
2022/01/14 12:59:58;;;;;;;7.60;5.13;;;;;;;;;;5057195;28;20119;-77
2022/01/14 13:02:31;;;;;;;16.30;5.57;;;;;;;;;;5089049;28;20441;-77
2022/01/14 13:05:04;;;;;;;6.65;4.10;;;;;;;;;;5086070;28;20052;-78
2022/01/14 13:07:34;;;;;;;4.57;4.13;;;;;;;;;;5064154;28;20043;-77
2022/01/14 13:10:03;;;;;;;5.25;4.15;;;;;;;;;;5058599;28;20045;-78
2022/01/14 13:12:42;;;;;;;5.97;4.03;;;;;;;;;;5061702;28;20055;-77
2022/01/14 13:15:16;;;;;;;7.30;4.20;;;;;;;;;;5086958;28;20052;-76
2022/01/14 13:17:53;;;;;;;8.10;4.50;;;;;;;;;;5042222;28;20045;-76
2022/01/14 13:20:21;;;;;;;8.38;4.15;;;;;;;;;;5062063;28;20052;-76
2022/01/14 13:22:50;;;;;;;10.75;4.40;;;;;;;;;;5066067;28;20132;-77
2022/01/14 13:25:21;;;;;;;5.43;4.35;;;;;;;;;;5103279;28;20094;-76
2022/01/14 13:27:54;;;;;;;6.43;4.07;;;;;;;;;;5070045;28;20052;-75
2022/01/14 13:30:28;;;;;;;8.48;4.00;;;;;;;;;;5063372;28;20053;-76
2022/01/14 13:32:58;;;;;;;6.65;4.72;;;;;;;;;;5058385;28;20082;-76
2022/01/14 13:35:34;;;;;;;7.35;3.92;;;;;;;;;;5071578;28;20095;-78
2022/01/14 13:38:13;;;;;;;4.70;3.70;;;;;;;;;;5060920;28;20079;-82
2022/01/14 13:40:50;;;;;;;5.47;4.53;;;;;;;;;;5086562;28;20048;-78
2022/01/14 13:43:23;;;;;;;7.07;3.95;;;;;;;;;;5060629;28;20064;-74
2022/01/14 13:46:02;;;;;;;4.35;3.92;;;;;;;;;;5071111;28;20102;-76
2022/01/14 13:48:41;;;;;;;10.05;5.10;;;;;;;;;;5063168;28;20071;-81
2022/01/14 13:51:11;;;;;;;6.70;5.70;;;;;;;;;;5074487;28;20563;-78
2022/01/14 13:53:41;;;;;;;6.32;4.93;;;;;;;;;;5078762;28;20051;-80
2022/01/14 13:56:16;;;;;;;7.82;5.35;;;;;;;;;;5074269;28;20048;-78
2022/01/14 13:58:49;;;;;;;5.05;3.95;;;;;;;;;;5070634;28;20120;-79
2022/01/14 14:01:17;;;;;;;8.77;4.53;;;;;;;;;;5060898;28;20110;-71
2022/01/14 14:03:59;;;;;;;7.65;3.95;;;;;;;;;;5099444;28;20179;-71
2022/01/14 14:06:39;;;;;;;8.93;5.10;;;;;;;;;;5065582;28;20044;-74
2022/01/14 14:09:22;;;;;;;6.38;4.18;;;;;;;;;;5049073;28;20040;-78
2022/01/14 14:12:13;;;;;;;7.80;4.00;;;;;;;;;;5049594;28;20842;-75
2022/01/14 14:17:35;;;;;;;6.82;4.15;;;;;;;;;;5050323;28;20040;-76
2022/01/14 14:20:03;;;;;;;7.40;5.68;;;;;;;;;;5040267;28;20106;-76
2022/01/14 14:22:35;;;;;;;6.28;4.50;;;;;;;;;;5047872;28;20045;-76
2022/01/14 14:25:22;;;;;;;8.75;4.38;;;;;;;;;;5052596;28;20052;-76
2022/01/14 14:27:59;;;;;;;5.20;3.35;;;;;;;;;;5050607;28;20053;-76
2022/01/14 14:30:34;;;;;;;7.63;4.22;;;;;;;;;;5051602;28;20056;-76
2022/01/14 14:33:03;;;;;;;5.38;3.90;;;;;;;;;;5057744;28;20101;-75
2022/01/14 14:35:35;;;;;;;10.25;4.20;;;;;;;;;;5045181;28;20044;-76
2022/01/14 14:38:15;;;;;;;6.60;4.25;;;;;;;;;;5058279;28;20045;-76
2022/01/14 14:40:43;;;;;;;6.63;5.03;;;;;;;;;;5053885;28;20036;-76
2022/01/14 14:43:10;;;;;;;5.25;4.15;;;;;;;;;;5064533;28;20061;-76
2022/01/14 14:45:37;;;;;;;5.10;4.43;;;;;;;;;;5040455;28;20045;-76
2022/01/14 14:48:05;;;;;;;6.43;5.15;;;;;;;;;;5051654;28;20503;-76
2022/01/14 14:50:32;;;;;;;6.03;4.68;;;;;;;;;;5053171;28;20493;-77
2022/01/14 14:53:00;;;;;;;8.02;5.20;;;;;;;;;;5051082;28;20047;-76
2022/01/14 14:55:31;;;;;;;6.85;5.40;;;;;;;;;;5056824;28;20052;-76
2022/01/14 14:57:59;;;;;;;9.80;4.18;;;;;;;;;;5046071;28;20496;-76
2022/01/14 15:00:27;;;;;;;5.63;4.68;;;;;;;;;;5058443;28;20052;-76
2022/01/14 15:02:55;;;;;;;7.00;3.92;;;;;;;;;;5060165;28;20235;-76
2022/01/14 15:05:23;;;;;;;23.90;6.88;;;;;;;;;;5035643;28;20051;-77
2022/01/14 15:07:51;;;;;;;6.35;5.22;;;;;;;;;;5038689;28;20076;-76
2022/01/14 15:10:21;;;;;;;16.05;4.90;;;;;;;;;;5057753;28;20044;-76
2022/01/14 15:12:48;;;;;;;6.85;3.95;;;;;;;;;;5066154;28;20523;-76
2022/01/14 15:15:20;;;;;;;6.60;4.72;;;;;;;;;;5048225;28;20044;-77
2022/01/14 15:20:34;;;;;;;8.15;5.25;;;;;;;;;;5058367;28;20056;-76
2022/01/14 15:23:02;;;;;;;5.25;4.22;;;;;;;;;;5044989;28;20105;-76
2022/01/14 15:25:30;;;;;;;5.75;5.05;;;;;;;;;;5055027;28;20044;-76
2022/01/14 15:27:57;;;;;;;5.95;4.53;;;;;;;;;;5048121;28;20475;-76
2022/01/14 15:30:32;;;;;;;9.85;5.47;;;;;;;;;;5037913;28;20088;-78